Time;durP1;ratioP1;P1;durP2;ratioP2;P2;SDS_P1;SDS_P2;PMS_P1;PMS_P2;Temp;Humidity;BMP_temperature;BMP_pressure;BME280_temperature;BME280_humidity;BME280_pressure;Samples;Min_cycle;Max_cycle;Signal;HPM_P1;HPM_P2
2024/04/13 00:01:58;;;;;;;59.60;6.00;;;;;;;;;;5513607;26;20529;-68
2024/04/13 00:04:27;;;;;;;61.23;6.10;;;;;;;;;;5519873;26;20533;-70
2024/04/13 00:06:54;;;;;;;57.80;5.20;;;;;;;;;;5516556;26;20603;-71
2024/04/13 00:09:22;;;;;;;58.70;5.83;;;;;;;;;;5488226;26;20470;-71
2024/04/13 00:11:49;;;;;;;65.47;5.80;;;;;;;;;;5487638;26;20470;-70
2024/04/13 00:14:17;;;;;;;61.50;6.73;;;;;;;;;;5521255;26;20525;-70
2024/04/13 00:16:46;;;;;;;64.83;6.50;;;;;;;;;;5521411;26;20570;-71
2024/04/13 00:19:15;;;;;;;61.13;5.97;;;;;;;;;;5488602;26;20648;-70
2024/04/13 00:21:41;;;;;;;62.03;6.40;;;;;;;;;;5488163;26;20486;-69
2024/04/13 00:24:10;;;;;;;60.67;6.70;;;;;;;;;;5488224;26;21021;-70
2024/04/13 00:26:36;;;;;;;61.70;6.70;;;;;;;;;;5488150;26;20521;-70
2024/04/13 00:29:07;;;;;;;58.00;5.73;;;;;;;;;;5517800;26;20522;-69
2024/04/13 00:31:34;;;;;;;61.57;5.93;;;;;;;;;;5472720;26;20550;-70
2024/04/13 00:34:05;;;;;;;60.70;6.80;;;;;;;;;;5516972;26;20950;-70
2024/04/13 00:36:35;;;;;;;61.80;6.27;;;;;;;;;;5524654;26;20788;-70
2024/04/13 00:39:04;;;;;;;61.67;6.90;;;;;;;;;;5517188;26;20515;-70
2024/04/13 00:41:31;;;;;;;60.60;5.80;;;;;;;;;;5524068;26;20521;-70
2024/04/13 00:44:00;;;;;;;59.70;5.80;;;;;;;;;;5515620;26;20476;-69
2024/04/13 00:46:27;;;;;;;60.90;6.03;;;;;;;;;;5524910;26;20520;-70
2024/04/13 00:48:56;;;;;;;60.23;6.00;;;;;;;;;;5515018;26;20590;-70
2024/04/13 00:51:25;;;;;;;60.23;5.73;;;;;;;;;;5524310;26;20521;-70
2024/04/13 00:53:55;;;;;;;60.30;6.30;;;;;;;;;;5488069;26;21080;-70
2024/04/13 00:56:21;;;;;;;60.70;6.70;;;;;;;;;;5487817;26;20599;-70
2024/04/13 00:58:51;;;;;;;63.30;6.00;;;;;;;;;;5487232;26;20552;-69
2024/04/13 01:01:17;;;;;;;67.13;6.00;;;;;;;;;;5486763;26;20474;-70
2024/04/13 01:03:46;;;;;;;60.00;6.40;;;;;;;;;;5486178;26;20521;-70
2024/04/13 01:06:13;;;;;;;63.23;8.30;;;;;;;;;;5487405;26;20478;-69
2024/04/13 01:08:44;;;;;;;61.37;6.47;;;;;;;;;;5487416;26;20542;-70
2024/04/13 01:11:12;;;;;;;62.67;7.23;;;;;;;;;;5487880;26;20478;-70
2024/04/13 01:13:41;;;;;;;59.87;6.70;;;;;;;;;;5509985;26;20528;-70
2024/04/13 01:16:07;;;;;;;61.40;6.50;;;;;;;;;;5524535;26;21019;-70
2024/04/13 01:18:36;;;;;;;61.13;7.40;;;;;;;;;;5513834;26;20532;-70
2024/04/13 01:21:02;;;;;;;67.37;7.90;;;;;;;;;;5524574;26;20584;-70
2024/04/13 01:23:33;;;;;;;60.27;6.63;;;;;;;;;;5493029;26;20465;-70
2024/04/13 01:26:02;;;;;;;62.60;6.83;;;;;;;;;;5487635;26;20726;-70
2024/04/13 01:28:33;;;;;;;59.90;6.40;;;;;;;;;;5507548;26;21033;-69
2024/04/13 01:30:59;;;;;;;63.27;7.20;;;;;;;;;;5524262;26;20575;-69
2024/04/13 01:33:28;;;;;;;62.37;7.17;;;;;;;;;;5493764;26;20584;-70
2024/04/13 01:35:57;;;;;;;60.87;6.50;;;;;;;;;;5487313;26;20502;-70
2024/04/13 01:38:26;;;;;;;63.73;6.73;;;;;;;;;;5505365;26;20585;-69
2024/04/13 01:40:52;;;;;;;61.27;6.93;;;;;;;;;;5524057;26;20469;-70
2024/04/13 01:43:23;;;;;;;60.70;7.07;;;;;;;;;;5495486;26;20518;-68
2024/04/13 01:45:50;;;;;;;60.97;6.70;;;;;;;;;;5487305;26;20529;-70
2024/04/13 01:48:20;;;;;;;62.50;7.13;;;;;;;;;;5498385;26;21127;-70
2024/04/13 01:50:46;;;;;;;60.03;7.13;;;;;;;;;;5484068;26;20535;-70
2024/04/13 01:53:15;;;;;;;65.50;6.53;;;;;;;;;;5486239;26;20530;-69
2024/04/13 01:55:41;;;;;;;61.20;6.90;;;;;;;;;;5486987;26;20545;-70
2024/04/13 01:58:10;;;;;;;61.77;6.43;;;;;;;;;;5486364;26;20490;-70
2024/04/13 02:00:39;;;;;;;59.77;6.97;;;;;;;;;;5472027;26;20474;-70
2024/04/13 02:03:08;;;;;;;60.53;6.80;;;;;;;;;;5499250;26;21086;-70
2024/04/13 02:05:35;;;;;;;59.87;6.67;;;;;;;;;;5523483;26;20465;-70
2024/04/13 02:08:03;;;;;;;60.20;6.70;;;;;;;;;;5512690;26;20468;-70
2024/04/13 02:10:31;;;;;;;60.60;6.70;;;;;;;;;;5502117;26;20530;-69
2024/04/13 02:13:00;;;;;;;63.60;7.70;;;;;;;;;;5497383;26;20909;-69
2024/04/13 02:15:26;;;;;;;62.10;7.20;;;;;;;;;;5523587;26;20507;-70
2024/04/13 02:17:57;;;;;;;61.43;7.00;;;;;;;;;;5512552;26;21071;-70
2024/04/13 02:20:23;;;;;;;62.80;8.13;;;;;;;;;;5523416;26;20537;-70
2024/04/13 02:22:53;;;;;;;59.47;6.80;;;;;;;;;;5511617;26;20583;-69
2024/04/13 02:25:19;;;;;;;59.40;6.53;;;;;;;;;;5523702;26;20469;-69
2024/04/13 02:27:48;;;;;;;61.80;6.33;;;;;;;;;;5503913;26;20474;-69
2024/04/13 02:30:15;;;;;;;63.20;6.87;;;;;;;;;;5485235;26;20490;-69
2024/04/13 02:32:43;;;;;;;60.77;7.10;;;;;;;;;;5493473;26;20540;-69
2024/04/13 02:35:12;;;;;;;58.80;6.20;;;;;;;;;;5523009;26;20901;-69
2024/04/13 02:37:41;;;;;;;61.60;5.73;;;;;;;;;;5512086;26;20521;-69
2024/04/13 02:40:09;;;;;;;65.77;7.30;;;;;;;;;;5523475;26;20524;-69
2024/04/13 02:42:38;;;;;;;61.50;6.10;;;;;;;;;;5506124;26;20530;-69
2024/04/13 02:45:05;;;;;;;61.00;6.90;;;;;;;;;;5486309;26;20522;-69
2024/04/13 02:47:34;;;;;;;60.30;7.07;;;;;;;;;;5490614;26;20526;-70
2024/04/13 02:50:00;;;;;;;60.27;6.73;;;;;;;;;;5514747;26;20537;-69
2024/04/13 02:52:32;;;;;;;59.87;5.93;;;;;;;;;;5504915;26;20538;-69
2024/04/13 02:54:58;;;;;;;60.77;6.47;;;;;;;;;;5486207;26;20803;-69
2024/04/13 02:57:27;;;;;;;60.90;7.00;;;;;;;;;;5488620;26;20474;-69
2024/04/13 02:59:53;;;;;;;59.17;6.20;;;;;;;;;;5522870;26;20989;-70
2024/04/13 03:02:23;;;;;;;66.80;7.57;;;;;;;;;;5510078;26;20517;-70
2024/04/13 03:04:50;;;;;;;61.67;6.80;;;;;;;;;;5522836;26;21023;-69
2024/04/13 03:07:19;;;;;;;59.10;6.40;;;;;;;;;;5510992;26;20534;-69
2024/04/13 03:09:48;;;;;;;64.50;6.53;;;;;;;;;;5485993;26;20512;-69
2024/04/13 03:12:17;;;;;;;62.43;7.43;;;;;;;;;;5485503;26;20470;-69
2024/04/13 03:14:43;;;;;;;61.77;6.80;;;;;;;;;;5522733;26;20525;-70
2024/04/13 03:17:12;;;;;;;60.63;6.83;;;;;;;;;;5512319;26;20481;-69
2024/04/13 03:19:38;;;;;;;61.40;7.33;;;;;;;;;;5521815;26;20522;-68
2024/04/13 03:22:07;;;;;;;61.37;7.57;;;;;;;;;;5512923;26;20520;-69
2024/04/13 03:24:34;;;;;;;60.83;6.70;;;;;;;;;;5520708;26;20594;-69
2024/04/13 03:27:06;;;;;;;60.50;7.30;;;;;;;;;;5514577;26;20470;-69
2024/04/13 03:29:32;;;;;;;59.27;6.30;;;;;;;;;;5520147;26;20668;-69
2024/04/13 03:32:01;;;;;;;60.57;6.80;;;;;;;;;;5514626;26;21131;-68
2024/04/13 03:34:27;;;;;;;61.70;7.23;;;;;;;;;;5484868;26;20565;-69
2024/04/13 03:36:56;;;;;;;60.07;6.73;;;;;;;;;;5485214;26;20512;-69
2024/04/13 03:39:25;;;;;;;59.37;6.10;;;;;;;;;;5485243;26;20621;-69
2024/04/13 03:41:55;;;;;;;60.17;6.30;;;;;;;;;;5487409;26;20619;-69
2024/04/13 03:44:24;;;;;;;59.90;6.07;;;;;;;;;;5520500;26;20469;-69
2024/04/13 03:46:53;;;;;;;60.20;6.80;;;;;;;;;;5520511;26;20526;-70
2024/04/13 03:49:19;;;;;;;66.83;8.00;;;;;;;;;;5519886;26;20914;-69
2024/04/13 03:51:48;;;;;;;60.37;7.00;;;;;;;;;;5521097;26;20472;-69
2024/04/13 03:54:14;;;;;;;60.07;6.00;;;;;;;;;;5518277;26;20528;-69
2024/04/13 03:56:43;;;;;;;61.70;6.50;;;;;;;;;;5522853;26;20476;-69
2024/04/13 03:59:09;;;;;;;59.97;5.83;;;;;;;;;;5488433;26;20895;-69
2024/04/13 04:01:40;;;;;;;60.70;6.30;;;;;;;;;;5487877;26;21052;-68
2024/04/13 04:04:06;;;;;;;59.70;6.47;;;;;;;;;;5515824;26;20593;-70
2024/04/13 04:06:35;;;;;;;59.90;6.67;;;;;;;;;;5524505;26;20464;-69
2024/04/13 04:09:01;;;;;;;58.90;6.03;;;;;;;;;;5488629;26;20525;-69
2024/04/13 04:11:30;;;;;;;60.77;6.57;;;;;;;;;;5488137;26;20533;-69
2024/04/13 04:13:56;;;;;;;58.47;6.37;;;;;;;;;;5475711;26;21076;-69
2024/04/13 04:16:25;;;;;;;60.67;6.07;;;;;;;;;;5488264;26;20466;-70
2024/04/13 04:18:54;;;;;;;60.17;6.80;;;;;;;;;;5511845;26;20586;-68
2024/04/13 04:21:24;;;;;;;60.97;7.00;;;;;;;;;;5524472;26;20786;-69
2024/04/13 04:23:51;;;;;;;60.27;7.17;;;;;;;;;;5488883;26;21061;-69
2024/04/13 04:26:19;;;;;;;65.37;6.30;;;;;;;;;;5488236;26;21020;-69
2024/04/13 04:28:45;;;;;;;60.50;6.13;;;;;;;;;;5509748;26;20575;-69
2024/04/13 04:31:15;;;;;;;60.90;7.00;;;;;;;;;;5525286;26;20469;-70
2024/04/13 04:33:41;;;;;;;63.43;6.90;;;;;;;;;;5491822;26;20580;-69
2024/04/13 04:36:13;;;;;;;60.67;6.43;;;;;;;;;;5488440;26;20559;-70
2024/04/13 04:38:39;;;;;;;60.47;6.40;;;;;;;;;;5508397;26;22156;-70
2024/04/13 04:41:07;;;;;;;60.20;6.00;;;;;;;;;;5525161;26;20473;-70
2024/04/13 04:43:33;;;;;;;59.43;5.80;;;;;;;;;;5492386;26;21118;-69
2024/04/13 04:46:02;;;;;;;64.03;6.37;;;;;;;;;;5488382;26;20526;-69
2024/04/13 04:48:28;;;;;;;59.77;5.93;;;;;;;;;;5488154;26;20490;-70
2024/04/13 04:50:58;;;;;;;61.10;6.70;;;;;;;;;;5488128;26;20613;-70
2024/04/13 04:53:27;;;;;;;61.87;6.47;;;;;;;;;;5486254;26;21001;-70
2024/04/13 04:55:56;;;;;;;59.57;6.60;;;;;;;;;;5488936;26;21132;-70
2024/04/13 04:58:23;;;;;;;59.90;6.50;;;;;;;;;;5503466;26;20472;-69
2024/04/13 05:00:51;;;;;;;60.50;6.27;;;;;;;;;;5525267;26;20767;-70
2024/04/13 05:03:18;;;;;;;60.60;6.53;;;;;;;;;;5495723;26;20625;-70
2024/04/13 05:05:47;;;;;;;60.93;5.77;;;;;;;;;;5487744;26;20470;-70
2024/04/13 05:08:13;;;;;;;59.60;5.87;;;;;;;;;;5500584;26;20480;-70
2024/04/13 05:10:44;;;;;;;62.83;6.97;;;;;;;;;;5524077;26;20521;-69
2024/04/13 05:13:11;;;;;;;60.60;6.63;;;;;;;;;;5498434;26;20617;-68
2024/04/13 05:15:40;;;;;;;59.30;6.50;;;;;;;;;;5487561;26;20469;-69
2024/04/13 05:18:07;;;;;;;59.97;6.70;;;;;;;;;;5498528;26;21066;-68
2024/04/13 05:20:36;;;;;;;60.70;6.13;;;;;;;;;;5524466;26;20871;-69
2024/04/13 05:23:03;;;;;;;61.17;5.80;;;;;;;;;;5500180;26;20462;-68
2024/04/13 05:25:31;;;;;;;60.37;6.73;;;;;;;;;;5487525;26;20474;-69
2024/04/13 05:28:00;;;;;;;59.70;6.57;;;;;;;;;;5496562;26;20904;-69
2024/04/13 05:30:29;;;;;;;60.07;6.60;;;;;;;;;;5524127;26;20532;-68
2024/04/13 05:32:55;;;;;;;59.07;6.07;;;;;;;;;;5501696;26;20842;-69
2024/04/13 05:35:24;;;;;;;59.93;6.67;;;;;;;;;;5487029;26;20474;-69
2024/04/13 05:37:52;;;;;;;60.33;7.03;;;;;;;;;;5494277;26;20461;-70
2024/04/13 05:40:19;;;;;;;60.13;6.50;;;;;;;;;;5503214;26;20546;-69
2024/04/13 05:42:47;;;;;;;61.90;6.60;;;;;;;;;;5486191;26;20549;-68
2024/04/13 05:45:16;;;;;;;58.93;6.40;;;;;;;;;;5487046;26;20482;-70
2024/04/13 05:47:45;;;;;;;59.93;6.80;;;;;;;;;;5486849;26;20470;-69
2024/04/13 05:50:11;;;;;;;60.00;7.07;;;;;;;;;;5487181;26;20964;-69
2024/04/13 05:52:40;;;;;;;59.20;6.27;;;;;;;;;;5489736;26;20970;-69
2024/04/13 05:55:06;;;;;;;60.40;7.03;;;;;;;;;;5524021;26;20935;-68
2024/04/13 05:57:37;;;;;;;60.53;7.10;;;;;;;;;;5507523;26;20557;-69
2024/04/13 06:00:04;;;;;;;60.37;7.03;;;;;;;;;;5487016;26;20530;-69
2024/04/13 06:02:35;;;;;;;61.90;6.67;;;;;;;;;;5487549;26;20482;-69
2024/04/13 06:05:01;;;;;;;60.50;7.30;;;;;;;;;;5523001;26;20590;-69
2024/04/13 06:07:30;;;;;;;60.03;7.00;;;;;;;;;;5508823;26;20534;-69
2024/04/13 06:09:56;;;;;;;60.47;6.80;;;;;;;;;;5486868;26;20918;-70
2024/04/13 06:12:25;;;;;;;63.70;6.93;;;;;;;;;;5486167;26;20889;-69
2024/04/13 06:14:51;;;;;;;62.07;7.10;;;;;;;;;;5486971;26;20485;-70
2024/04/13 06:17:20;;;;;;;60.07;7.70;;;;;;;;;;5486791;26;20469;-69
2024/04/13 06:19:49;;;;;;;62.83;7.17;;;;;;;;;;5486741;26;20474;-70
2024/04/13 06:22:23;;;;;;;61.37;7.37;;;;;;;;;;5486836;26;20470;-70
2024/04/13 06:24:50;;;;;;;61.60;7.40;;;;;;;;;;5486633;26;20469;-70
2024/04/13 06:27:18;;;;;;;64.00;7.00;;;;;;;;;;5486889;26;20603;-70
2024/04/13 06:29:48;;;;;;;61.50;5.53;;;;;;;;;;5486489;26;21256;-68
2024/04/13 06:32:17;;;;;;;60.33;6.23;;;;;;;;;;5485925;26;20562;-68
2024/04/13 06:34:43;;;;;;;61.00;7.20;;;;;;;;;;5521225;26;21129;-68
2024/04/13 06:37:14;;;;;;;60.70;6.67;;;;;;;;;;5513272;26;20482;-68
2024/04/13 06:39:41;;;;;;;61.63;6.63;;;;;;;;;;5520661;26;20586;-68
2024/04/13 06:42:10;;;;;;;64.00;6.80;;;;;;;;;;5513303;26;20587;-68
2024/04/13 06:44:36;;;;;;;58.87;5.90;;;;;;;;;;5519214;26;20529;-68
2024/04/13 06:47:05;;;;;;;59.57;6.03;;;;;;;;;;5514850;26;20587;-68
2024/04/13 06:49:31;;;;;;;60.63;6.37;;;;;;;;;;5517889;26;20476;-68
2024/04/13 06:51:59;;;;;;;59.10;6.13;;;;;;;;;;5515539;26;20533;-68
2024/04/13 06:54:28;;;;;;;62.40;6.30;;;;;;;;;;5485962;26;20794;-69
2024/04/13 06:56:57;;;;;;;59.03;5.27;;;;;;;;;;5486086;26;20522;-68
2024/04/13 06:59:23;;;;;;;58.90;5.47;;;;;;;;;;5515826;26;20476;-68
2024/04/13 07:01:52;;;;;;;60.20;5.97;;;;;;;;;;5517053;26;20589;-68
2024/04/13 07:04:18;;;;;;;59.53;5.90;;;;;;;;;;5485541;26;21064;-67
2024/04/13 07:06:47;;;;;;;58.70;5.87;;;;;;;;;;5485973;26;21049;-68
2024/04/13 07:09:13;;;;;;;60.60;5.70;;;;;;;;;;5485838;26;20583;-68
2024/04/13 07:11:44;;;;;;;59.87;6.20;;;;;;;;;;5485268;26;20884;-68
2024/04/13 07:14:10;;;;;;;59.67;6.03;;;;;;;;;;5512079;26;20492;-68
2024/04/13 07:16:39;;;;;;;62.50;6.80;;;;;;;;;;5520083;26;20792;-69
2024/04/13 07:19:05;;;;;;;60.13;6.50;;;;;;;;;;5485998;26;20490;-69
2024/04/13 07:21:34;;;;;;;59.03;5.83;;;;;;;;;;5485156;26;20474;-69
2024/04/13 07:24:01;;;;;;;59.90;6.30;;;;;;;;;;5508889;26;20529;-68
2024/04/13 07:26:31;;;;;;;60.40;6.13;;;;;;;;;;5522878;26;20488;-69
2024/04/13 07:29:00;;;;;;;64.70;6.93;;;;;;;;;;5471712;26;20521;-70
2024/04/13 07:31:29;;;;;;;61.07;6.43;;;;;;;;;;5484221;26;20478;-70
2024/04/13 07:33:55;;;;;;;60.33;5.90;;;;;;;;;;5484714;26;20470;-70
2024/04/13 07:36:24;;;;;;;61.97;7.07;;;;;;;;;;5485647;26;20559;-70
2024/04/13 07:38:50;;;;;;;62.40;6.50;;;;;;;;;;5484550;26;20466;-70
2024/04/13 07:41:19;;;;;;;61.60;6.20;;;;;;;;;;5484833;26;20470;-70
2024/04/13 07:43:45;;;;;;;66.60;6.93;;;;;;;;;;5504048;26;20623;-69
2024/04/13 07:46:16;;;;;;;61.90;6.13;;;;;;;;;;5522275;26;20861;-69
2024/04/13 07:48:42;;;;;;;59.17;5.83;;;;;;;;;;5507277;26;20476;-71
2024/04/13 07:51:11;;;;;;;59.43;5.53;;;;;;;;;;5522435;26;20578;-70
2024/04/13 07:53:37;;;;;;;59.67;5.30;;;;;;;;;;5505910;26;20465;-70
2024/04/13 07:56:06;;;;;;;61.87;5.60;;;;;;;;;;5521969;26;20936;-70
2024/04/13 07:58:32;;;;;;;59.40;5.53;;;;;;;;;;5506217;26;20570;-70
2024/04/13 08:01:01;;;;;;;59.47;5.60;;;;;;;;;;5521904;26;20886;-70
2024/04/13 08:03:30;;;;;;;61.60;6.53;;;;;;;;;;5490751;26;20486;-69
2024/04/13 08:05:59;;;;;;;61.30;5.80;;;;;;;;;;5485060;26;20465;-70
2024/04/13 08:08:26;;;;;;;61.37;5.87;;;;;;;;;;5484709;26;20588;-70
2024/04/13 08:10:55;;;;;;;65.30;8.07;;;;;;;;;;5484718;26;20594;-70
2024/04/13 08:13:21;;;;;;;59.50;5.50;;;;;;;;;;5483771;26;20901;-70
2024/04/13 08:15:50;;;;;;;59.97;5.87;;;;;;;;;;5484804;26;21216;-70
2024/04/13 08:18:16;;;;;;;60.23;6.27;;;;;;;;;;5484379;26;20854;-70
2024/04/13 08:20:47;;;;;;;61.00;6.00;;;;;;;;;;5484703;26;21029;-70
2024/04/13 08:23:15;;;;;;;62.13;6.27;;;;;;;;;;5494903;26;20473;-69
2024/04/13 08:25:43;;;;;;;61.03;5.30;;;;;;;;;;5521378;26;20529;-71
2024/04/13 08:28:10;;;;;;;60.63;5.60;;;;;;;;;;5497550;26;20537;-69
2024/04/13 08:30:40;;;;;;;61.53;5.57;;;;;;;;;;5488595;26;20477;-70
2024/04/13 08:33:06;;;;;;;60.00;5.23;;;;;;;;;;5487606;26;20462;-69
2024/04/13 08:35:34;;;;;;;63.10;5.80;;;;;;;;;;5488213;26;20469;-70
2024/04/13 08:38:03;;;;;;;61.17;5.77;;;;;;;;;;5510633;26;20469;-70
2024/04/13 08:40:32;;;;;;;58.53;5.13;;;;;;;;;;5525370;26;20828;-71
2024/04/13 08:43:01;;;;;;;64.23;5.00;;;;;;;;;;5524004;26;20484;-70
2024/04/13 08:45:30;;;;;;;59.27;4.80;;;;;;;;;;5525096;26;20525;-70
2024/04/13 08:47:59;;;;;;;60.63;5.40;;;;;;;;;;5473390;26;20485;-70
2024/04/13 08:50:28;;;;;;;60.23;5.90;;;;;;;;;;5487408;26;20478;-70
2024/04/13 08:52:55;;;;;;;59.13;5.50;;;;;;;;;;5522922;26;20472;-70
2024/04/13 08:55:26;;;;;;;59.60;5.23;;;;;;;;;;5525123;26;20528;-70
2024/04/13 08:57:53;;;;;;;58.30;4.40;;;;;;;;;;5524029;26;20488;-69
2024/04/13 09:00:24;;;;;;;59.80;5.43;;;;;;;;;;5524756;26;20476;-70
2024/04/13 09:02:53;;;;;;;59.40;4.90;;;;;;;;;;5523152;26;20964;-69
2024/04/13 09:05:22;;;;;;;62.37;5.37;;;;;;;;;;5524943;26;20584;-70
2024/04/13 09:07:49;;;;;;;61.63;5.50;;;;;;;;;;5504482;26;20522;-70
2024/04/13 09:10:18;;;;;;;60.53;5.70;;;;;;;;;;5487436;26;20474;-70
2024/04/13 09:12:47;;;;;;;58.23;5.00;;;;;;;;;;5486778;26;20484;-69
2024/04/13 09:15:16;;;;;;;58.30;3.90;;;;;;;;;;5487513;26;20598;-70
2024/04/13 09:17:42;;;;;;;59.20;4.57;;;;;;;;;;5504819;26;20521;-70
2024/04/13 09:20:12;;;;;;;60.87;4.47;;;;;;;;;;5524701;26;20480;-71
2024/04/13 09:22:39;;;;;;;65.93;4.93;;;;;;;;;;5506764;26;20586;-71
2024/04/13 09:25:10;;;;;;;60.67;4.40;;;;;;;;;;5487966;26;21039;-70
2024/04/13 09:27:36;;;;;;;58.00;3.53;;;;;;;;;;5487339;26;21005;-70
2024/04/13 09:30:13;;;;;;;60.70;4.30;;;;;;;;;;5486453;26;20811;-70
2024/04/13 09:32:39;;;;;;;59.87;3.87;;;;;;;;;;5486375;26;20565;-70
2024/04/13 09:35:11;;;;;;;57.80;4.00;;;;;;;;;;5487198;26;20924;-70
2024/04/13 09:37:37;;;;;;;57.77;4.10;;;;;;;;;;5502692;26;20465;-69
2024/04/13 09:40:06;;;;;;;60.53;3.37;;;;;;;;;;5524096;26;20586;-70
2024/04/13 09:42:32;;;;;;;58.17;3.50;;;;;;;;;;5522176;26;20587;-70
2024/04/13 09:45:11;;;;;;;59.07;3.37;;;;;;;;;;5523843;26;20474;-70
2024/04/13 09:47:38;;;;;;;59.57;4.03;;;;;;;;;;5522515;26;20468;-70
2024/04/13 09:50:07;;;;;;;59.17;3.77;;;;;;;;;;5524157;26;20473;-70
2024/04/13 09:52:33;;;;;;;58.73;3.40;;;;;;;;;;5504240;26;20525;-70
2024/04/13 09:55:02;;;;;;;59.87;4.50;;;;;;;;;;5523531;26;20481;-70
2024/04/13 09:57:28;;;;;;;58.57;4.20;;;;;;;;;;5522039;26;20524;-70
2024/04/13 09:59:57;;;;;;;57.80;3.57;;;;;;;;;;5523139;26;20525;-70
2024/04/13 10:02:26;;;;;;;59.90;4.27;;;;;;;;;;5521689;26;20574;-69
2024/04/13 10:04:55;;;;;;;60.10;4.00;;;;;;;;;;5523452;26;20727;-69
2024/04/13 10:07:24;;;;;;;58.17;4.30;;;;;;;;;;5521936;26;20517;-69
2024/04/13 10:09:56;;;;;;;57.57;3.27;;;;;;;;;;5523462;26;20521;-69
2024/04/13 10:12:25;;;;;;;58.73;3.67;;;;;;;;;;5509312;26;20529;-68
2024/04/13 10:14:55;;;;;;;57.20;3.60;;;;;;;;;;5486420;26;20466;-69
2024/04/13 10:17:22;;;;;;;62.00;3.93;;;;;;;;;;5498196;26;20472;-69
2024/04/13 10:19:53;;;;;;;57.73;3.20;;;;;;;;;;5523216;26;20573;-69
2024/04/13 10:22:22;;;;;;;60.10;3.70;;;;;;;;;;5521230;26;20478;-69
2024/04/13 10:24:50;;;;;;;60.10;3.97;;;;;;;;;;5522973;26;20465;-69
2024/04/13 10:27:21;;;;;;;57.50;2.87;;;;;;;;;;5511381;26;20590;-69
2024/04/13 10:29:51;;;;;;;58.20;2.97;;;;;;;;;;5485749;26;21073;-69
2024/04/13 10:32:19;;;;;;;58.90;3.80;;;;;;;;;;5495801;26;20510;-69
2024/04/13 10:34:48;;;;;;;57.67;3.20;;;;;;;;;;5522487;26;20476;-69
2024/04/13 10:37:27;;;;;;;56.77;2.80;;;;;;;;;;5511522;26;20594;-69
2024/04/13 10:39:56;;;;;;;57.77;3.50;;;;;;;;;;5486169;26;20518;-69
2024/04/13 10:42:33;;;;;;;56.90;2.97;;;;;;;;;;5485671;26;20535;-69
2024/04/13 10:45:04;;;;;;;57.57;3.20;;;;;;;;;;5486292;26;20531;-69
2024/04/13 10:47:30;;;;;;;57.63;3.00;;;;;;;;;;5486225;26;20474;-69
2024/04/13 10:50:00;;;;;;;57.80;3.13;;;;;;;;;;5485295;26;20518;-69
2024/04/13 10:52:29;;;;;;;59.87;3.63;;;;;;;;;;5498128;26;20536;-69
2024/04/13 10:54:58;;;;;;;59.60;5.53;;;;;;;;;;5522351;26;20536;-69
2024/04/13 10:57:25;;;;;;;60.13;3.20;;;;;;;;;;5521038;26;20476;-69
2024/04/13 10:59:54;;;;;;;65.13;3.97;;;;;;;;;;5504466;26;21127;-69
2024/04/13 11:02:20;;;;;;;55.80;2.87;;;;;;;;;;5486027;26;20513;-67
2024/04/13 11:04:49;;;;;;;56.03;2.67;;;;;;;;;;5485922;26;20478;-67
2024/04/13 11:07:16;;;;;;;57.27;2.90;;;;;;;;;;5495232;26;20476;-67
2024/04/13 11:09:48;;;;;;;57.80;3.20;;;;;;;;;;5522041;26;20638;-67
2024/04/13 11:12:14;;;;;;;56.57;2.50;;;;;;;;;;5510855;26;20534;-67
2024/04/13 11:14:43;;;;;;;55.30;2.70;;;;;;;;;;5485474;26;20529;-68
2024/04/13 11:17:09;;;;;;;58.40;3.30;;;;;;;;;;5485999;26;20595;-69
2024/04/13 11:19:39;;;;;;;57.13;2.63;;;;;;;;;;5485524;26;20567;-68
2024/04/13 11:22:05;;;;;;;57.17;2.90;;;;;;;;;;5491803;26;20810;-68
2024/04/13 11:24:34;;;;;;;58.30;3.13;;;;;;;;;;5522273;26;20520;-68
2024/04/13 11:27:03;;;;;;;57.87;3.13;;;;;;;;;;5519862;26;20511;-68
2024/04/13 11:29:32;;;;;;;55.60;2.80;;;;;;;;;;5522602;26;20465;-68
2024/04/13 11:31:58;;;;;;;56.63;2.50;;;;;;;;;;5486419;26;20486;-68
2024/04/13 11:34:27;;;;;;;57.20;2.80;;;;;;;;;;5485426;26;20526;-69
2024/04/13 11:37:00;;;;;;;55.53;2.73;;;;;;;;;;5488788;26;20974;-68
2024/04/13 11:39:29;;;;;;;56.77;3.00;;;;;;;;;;5522218;26;20476;-68
2024/04/13 11:41:55;;;;;;;58.87;2.93;;;;;;;;;;5515404;26;20855;-68
2024/04/13 11:44:26;;;;;;;57.00;3.13;;;;;;;;;;5485341;26;20907;-68
2024/04/13 11:46:53;;;;;;;56.07;2.90;;;;;;;;;;5485121;26;20605;-69
2024/04/13 11:49:21;;;;;;;56.27;3.43;;;;;;;;;;5485291;26;20473;-69
2024/04/13 11:51:48;;;;;;;59.30;2.80;;;;;;;;;;5484171;26;20486;-69
2024/04/13 11:54:16;;;;;;;57.17;3.00;;;;;;;;;;5484907;26;21077;-69
2024/04/13 11:56:43;;;;;;;56.70;3.27;;;;;;;;;;5484884;26;20481;-68
2024/04/13 11:59:15;;;;;;;55.67;3.10;;;;;;;;;;5485270;26;20481;-68
2024/04/13 12:01:44;;;;;;;56.77;3.07;;;;;;;;;;5484289;26;20486;-68
2024/04/13 12:04:13;;;;;;;57.83;3.10;;;;;;;;;;5524310;26;20612;-69
2024/04/13 12:06:39;;;;;;;57.40;3.50;;;;;;;;;;5522978;26;20472;-68
2024/04/13 12:09:09;;;;;;;61.07;3.10;;;;;;;;;;5488469;26;20486;-69
2024/04/13 12:11:36;;;;;;;59.30;3.20;;;;;;;;;;5487419;26;20577;-69
2024/04/13 12:14:04;;;;;;;55.37;2.77;;;;;;;;;;5523629;26;22015;-69
2024/04/13 12:16:31;;;;;;;57.10;2.70;;;;;;;;;;5524576;26;20476;-69
2024/04/13 12:19:03;;;;;;;55.87;2.80;;;;;;;;;;5488177;26;20521;-69
2024/04/13 12:21:30;;;;;;;56.57;3.17;;;;;;;;;;5488287;26;20469;-69
2024/04/13 12:23:59;;;;;;;57.37;3.43;;;;;;;;;;5487421;26;20533;-69
2024/04/13 12:26:26;;;;;;;55.40;2.63;;;;;;;;;;5488602;26;20844;-69
2024/04/13 12:28:54;;;;;;;55.70;2.80;;;;;;;;;;5520656;26;20476;-69
2024/04/13 12:31:20;;;;;;;55.77;2.90;;;;;;;;;;5524490;26;20480;-68
2024/04/13 12:33:49;;;;;;;55.27;3.17;;;;;;;;;;5521554;26;20538;-68
2024/04/13 12:36:19;;;;;;;57.17;2.93;;;;;;;;;;5524829;26;20488;-68
2024/04/13 12:38:48;;;;;;;56.20;2.67;;;;;;;;;;5490360;26;20555;-69
2024/04/13 12:41:14;;;;;;;55.20;2.70;;;;;;;;;;5488353;26;20516;-68
2024/04/13 12:43:43;;;;;;;55.07;2.70;;;;;;;;;;5486726;26;20466;-70
2024/04/13 12:46:10;;;;;;;56.80;3.10;;;;;;;;;;5488439;26;20812;-71
2024/04/13 12:48:39;;;;;;;56.57;3.10;;;;;;;;;;5488064;26;20482;-70
2024/04/13 12:51:05;;;;;;;61.80;3.47;;;;;;;;;;5487752;26;20470;-71
2024/04/13 12:53:37;;;;;;;56.43;3.17;;;;;;;;;;5514655;26;20775;-71
2024/04/13 12:56:03;;;;;;;56.43;3.00;;;;;;;;;;5524585;26;20521;-71
2024/04/13 12:58:32;;;;;;;54.97;2.77;;;;;;;;;;5520930;26;20468;-71
2024/04/13 13:00:58;;;;;;;59.07;3.70;;;;;;;;;;5524511;26;20501;-71
2024/04/13 13:03:27;;;;;;;57.07;3.37;;;;;;;;;;5494662;26;20562;-71
2024/04/13 13:05:53;;;;;;;56.00;3.10;;;;;;;;;;5487683;26;20470;-71
2024/04/13 13:08:23;;;;;;;56.67;2.90;;;;;;;;;;5487309;26;20525;-71
2024/04/13 13:10:52;;;;;;;55.30;3.17;;;;;;;;;;5519302;26;20468;-71
2024/04/13 13:13:20;;;;;;;57.17;2.80;;;;;;;;;;5496014;26;20526;-71
2024/04/13 13:15:46;;;;;;;59.13;3.07;;;;;;;;;;5487564;26;21001;-71
2024/04/13 13:18:15;;;;;;;56.53;2.60;;;;;;;;;;5487326;26;20521;-72
2024/04/13 13:20:43;;;;;;;55.40;2.60;;;;;;;;;;5487667;26;20534;-71
2024/04/13 13:23:12;;;;;;;55.07;2.87;;;;;;;;;;5508406;26;20473;-71
2024/04/13 13:25:38;;;;;;;57.27;2.50;;;;;;;;;;5524378;26;20877;-71
2024/04/13 13:28:10;;;;;;;56.37;3.20;;;;;;;;;;5500242;26;20584;-71
2024/04/13 13:30:37;;;;;;;55.40;2.97;;;;;;;;;;5487590;26;20470;-71
2024/04/13 13:33:07;;;;;;;55.20;2.60;;;;;;;;;;5506120;26;20484;-71
2024/04/13 13:35:34;;;;;;;56.40;3.20;;;;;;;;;;5524324;26;20460;-71
2024/04/13 13:38:02;;;;;;;56.17;2.93;;;;;;;;;;5501162;26;20474;-71
2024/04/13 13:40:29;;;;;;;56.83;3.20;;;;;;;;;;5487236;26;20511;-71
2024/04/13 13:42:57;;;;;;;55.77;2.33;;;;;;;;;;5486384;26;21146;-71
2024/04/13 13:45:26;;;;;;;56.57;2.57;;;;;;;;;;5487312;26;20619;-71
2024/04/13 13:47:55;;;;;;;57.13;2.90;;;;;;;;;;5503376;26;20473;-71
2024/04/13 13:50:21;;;;;;;55.90;2.93;;;;;;;;;;5524166;26;20593;-71
2024/04/13 13:52:50;;;;;;;57.43;3.80;;;;;;;;;;5518827;26;20468;-70
2024/04/13 13:55:17;;;;;;;55.37;2.67;;;;;;;;;;5523842;26;20517;-71
2024/04/13 13:57:47;;;;;;;56.87;3.50;;;;;;;;;;5519604;26;20590;-71
2024/04/13 14:00:13;;;;;;;56.00;2.80;;;;;;;;;;5517718;26;20529;-70
2024/04/13 14:02:46;;;;;;;56.40;2.87;;;;;;;;;;5486084;26;20545;-70
2024/04/13 14:05:12;;;;;;;56.97;2.97;;;;;;;;;;5486398;26;21055;-71
2024/04/13 14:07:41;;;;;;;57.67;3.43;;;;;;;;;;5499516;26;21008;-70
2024/04/13 14:10:07;;;;;;;55.73;2.50;;;;;;;;;;5523771;26;20517;-71
2024/04/13 14:12:36;;;;;;;55.43;2.97;;;;;;;;;;5518537;26;20536;-70
2024/04/13 14:15:02;;;;;;;57.77;2.83;;;;;;;;;;5523285;26;21141;-70
2024/04/13 14:17:31;;;;;;;55.80;2.60;;;;;;;;;;5518727;26;20521;-71
2024/04/13 14:20:03;;;;;;;55.37;2.80;;;;;;;;;;5523366;26;20840;-70
2024/04/13 14:22:32;;;;;;;55.10;3.13;;;;;;;;;;5518169;26;20480;-71
2024/04/13 14:24:59;;;;;;;56.63;3.00;;;;;;;;;;5522358;26;20468;-70
2024/04/13 14:27:28;;;;;;;55.47;2.90;;;;;;;;;;5509605;26;20878;-70
2024/04/13 14:29:54;;;;;;;55.60;2.93;;;;;;;;;;5486289;26;20603;-71
2024/04/13 14:32:22;;;;;;;56.53;3.33;;;;;;;;;;5493590;26;20484;-70
2024/04/13 14:34:49;;;;;;;55.20;2.60;;;;;;;;;;5522663;26;20529;-70
2024/04/13 14:37:20;;;;;;;55.50;2.70;;;;;;;;;;5518328;26;21129;-71